Time;durP1;ratioP1;P1;durP2;ratioP2;P2;SDS_P1;SDS_P2;PMS_P1;PMS_P2;Temp;Humidity;BMP_temperature;BMP_pressure;BME280_temperature;BME280_humidity;BME280_pressure;Samples;Min_cycle;Max_cycle;Signal;HPM_P1;HPM_P2
2022/06/13 00:01:21;;;;;;;15.37;8.47;;;21.80;76.60;;;;;;5042494;28;20441;-71
2022/06/13 00:03:47;;;;;;;19.63;9.27;;;21.80;78.40;;;;;;5038557;28;21000;-71
2022/06/13 00:06:13;;;;;;;9.70;7.97;;;21.90;77.40;;;;;;5032407;28;20435;-71
2022/06/13 00:08:39;;;;;;;15.27;9.03;;;22.00;77.40;;;;;;5032752;28;20450;-71
2022/06/13 00:11:09;;;;;;;11.43;8.20;;;22.10;75.60;;;;;;5039699;28;20937;-71
2022/06/13 00:13:35;;;;;;;10.63;8.00;;;22.00;75.30;;;;;;5043908;28;20923;-72
2022/06/13 00:16:01;;;;;;;14.50;8.70;;;21.90;75.60;;;;;;5052556;28;20457;-71
2022/06/13 00:18:27;;;;;;;12.37;8.37;;;22.00;74.20;;;;;;5051743;28;20429;-71
2022/06/13 00:20:53;;;;;;;11.70;8.80;;;21.90;74.90;;;;;;5051133;28;20264;-71
2022/06/13 00:23:19;;;;;;;12.60;8.10;;;21.90;74.90;;;;;;5044272;28;20196;-70
2022/06/13 00:25:44;;;;;;;16.43;8.97;;;21.70;74.70;;;;;;5052110;28;20474;-72
2022/06/13 00:28:10;;;;;;;13.20;8.73;;;21.90;75.70;;;;;;5052256;28;20225;-71
2022/06/13 00:30:37;;;;;;;10.83;7.70;;;22.00;74.10;;;;;;5052164;28;20175;-71
2022/06/13 00:33:03;;;;;;;10.07;6.80;;;22.00;75.00;;;;;;5048630;28;20187;-71
2022/06/13 00:35:29;;;;;;;7.77;6.00;;;22.00;74.00;;;;;;5041548;28;20451;-72
2022/06/13 00:37:55;;;;;;;9.83;6.17;;;22.10;71.80;;;;;;5032163;28;20416;-71
2022/06/13 00:40:22;;;;;;;14.93;6.10;;;22.00;71.50;;;;;;5034636;28;20169;-71
2022/06/13 00:42:48;;;;;;;8.43;5.70;;;22.00;70.90;;;;;;5045988;28;20214;-72
2022/06/13 00:45:25;;;;;;;13.70;5.60;;;21.80;72.80;;;;;;5040572;28;20452;-70
2022/06/13 00:47:53;;;;;;;9.53;5.27;;;21.70;73.40;;;;;;5051478;28;20969;-71
2022/06/13 00:50:47;;;;;;;12.30;6.53;;;21.80;72.50;;;;;;5051916;28;20403;-71
2022/06/13 00:53:35;;;;;;;8.10;6.13;;;21.70;73.30;;;;;;5045875;28;20961;-71
2022/06/13 00:56:03;;;;;;;7.73;6.00;;;21.80;72.20;;;;;;5040892;28;20415;-71
2022/06/13 00:58:33;;;;;;;10.43;6.10;;;21.80;72.00;;;;;;5051259;28;20462;-71
2022/06/13 01:00:59;;;;;;;8.40;6.30;;;21.80;73.60;;;;;;5049745;28;20434;-72
2022/06/13 01:03:27;;;;;;;10.23;7.00;;;21.70;73.60;;;;;;5044970;28;20571;-70
2022/06/13 01:05:56;;;;;;;8.93;6.23;;;21.80;73.30;;;;;;5035929;28;20183;-71
2022/06/13 01:08:25;;;;;;;8.50;6.23;;;21.90;73.20;;;;;;5043883;28;21065;-71
2022/06/13 01:13:39;;;;;;;13.43;6.80;;;21.90;73.30;;;;;;5041802;28;20532;-71
2022/06/13 01:16:23;;;;;;;12.50;6.57;;;21.90;73.10;;;;;;5042125;28;20478;-71
2022/06/13 01:18:48;;;;;;;8.63;6.53;;;21.80;73.50;;;;;;5040503;28;20178;-71
2022/06/13 01:21:23;;;;;;;7.87;6.50;;;22.00;72.00;;;;;;5031590;28;20420;-71
2022/06/13 01:24:13;;;;;;;9.40;6.63;;;21.80;72.90;;;;;;5037803;28;20200;-71
2022/06/13 01:27:04;;;;;;;11.70;6.70;;;21.80;72.80;;;;;;5039759;28;20432;-71
2022/06/13 01:29:44;;;;;;;8.10;6.70;;;21.90;72.50;;;;;;5042551;28;20871;-69
2022/06/13 01:32:25;;;;;;;12.30;7.20;;;21.80;73.40;;;;;;5041364;28;20406;-71
2022/06/13 01:35:25;;;;;;;11.67;6.57;;;21.80;74.00;;;;;;5049259;28;21313;-71
2022/06/13 01:38:10;;;;;;;15.37;7.00;;;21.70;74.20;;;;;;5038437;28;20436;-71
2022/06/13 01:41:03;;;;;;;11.27;7.90;;;21.80;73.50;;;;;;5041754;28;20423;-71
2022/06/13 01:43:29;;;;;;;10.73;7.80;;;21.90;72.90;;;;;;5031239;28;20428;-70
2022/06/13 01:46:05;;;;;;;10.53;7.97;;;21.90;71.70;;;;;;5031315;28;20855;-71
2022/06/13 01:48:50;;;;;;;12.20;7.90;;;22.00;72.00;;;;;;5031508;28;20221;-71
2022/06/13 01:51:24;;;;;;;12.90;8.00;;;22.00;71.60;;;;;;5040946;28;20518;-71
2022/06/13 01:54:28;;;;;;;9.83;7.30;;;21.90;72.20;;;;;;5035276;28;20524;-71
2022/06/13 01:57:19;;;;;;;11.13;7.80;;;21.90;72.50;;;;;;5038958;28;20446;-71
2022/06/13 02:00:27;;;;;;;8.90;7.10;;;22.00;72.20;;;;;;5036427;28;20430;-71
2022/06/13 02:03:11;;;;;;;7.97;6.80;;;21.90;72.80;;;;;;5047034;28;20407;-71
2022/06/13 02:05:55;;;;;;;19.43;7.97;;;22.00;72.30;;;;;;5050520;28;20422;-71
2022/06/13 02:08:26;;;;;;;12.10;7.83;;;22.00;72.70;;;;;;5051276;28;20851;-72
2022/06/13 02:11:23;;;;;;;66.40;29.43;;;21.90;72.50;;;;;;5049512;28;20499;-71
2022/06/13 02:13:51;;;;;;;12.77;8.63;;;22.20;69.20;;;;;;5040562;28;20542;-71
2022/06/13 02:16:24;;;;;;;14.33;8.17;;;22.00;70.60;;;;;;5049849;28;20436;-71
2022/06/13 02:18:55;;;;;;;10.37;8.13;;;21.90;71.90;;;;;;5042654;28;20778;-70
2022/06/13 02:21:27;;;;;;;10.23;7.60;;;21.80;71.90;;;;;;5048219;28;20493;-71
2022/06/13 02:23:57;;;;;;;10.90;7.10;;;21.10;76.30;;;;;;5041727;28;20461;-71
2022/06/13 02:26:30;;;;;;;10.37;7.23;;;20.40;81.70;;;;;;5037789;28;20640;-71
2022/06/13 02:29:19;;;;;;;12.90;6.00;;;20.40;83.90;;;;;;5034558;28;20468;-72
2022/06/13 02:32:10;;;;;;;10.63;5.70;;;20.20;83.40;;;;;;5024609;28;20444;-71
2022/06/13 02:35:04;;;;;;;10.33;6.30;;;19.70;89.30;;;;;;5031522;28;20987;-72
2022/06/13 02:37:42;;;;;;;8.37;6.33;;;20.40;83.80;;;;;;5033696;28;20440;-71
2022/06/13 02:40:29;;;;;;;10.80;6.40;;;21.00;76.40;;;;;;5042402;28;20478;-71
2022/06/13 02:43:15;;;;;;;11.20;6.63;;;20.70;77.50;;;;;;5045701;28;20430;-71
2022/06/13 02:45:46;;;;;;;14.87;7.60;;;21.10;74.10;;;;;;5044965;28;20493;-72
2022/06/13 02:48:48;;;;;;;10.43;7.10;;;21.40;71.10;;;;;;5051732;28;20521;-71
2022/06/13 02:51:19;;;;;;;9.57;7.13;;;21.60;69.10;;;;;;5054273;28;20494;-71
2022/06/13 02:54:00;;;;;;;17.97;7.47;;;21.80;67.00;;;;;;5047029;28;21297;-71
2022/06/13 02:57:23;;;;;;;9.43;7.33;;;21.70;67.60;;;;;;5046624;28;20783;-71
2022/06/13 02:59:51;;;;;;;14.73;7.63;;;21.60;70.00;;;;;;5053796;28;20558;-71
2022/06/13 03:02:36;;;;;;;8.40;6.80;;;21.60;70.80;;;;;;5046384;28;20426;-71
2022/06/13 03:05:16;;;;;;;10.90;7.87;;;21.50;70.70;;;;;;5050003;28;20439;-71
2022/06/13 03:07:52;;;;;;;12.60;7.70;;;21.60;72.50;;;;;;5046263;28;20488;-71
2022/06/13 03:10:23;;;;;;;12.10;8.00;;;21.80;68.40;;;;;;5050211;28;20837;-71
2022/06/13 03:12:52;;;;;;;12.73;9.33;;;21.80;70.20;;;;;;5041630;28;20427;-71
2022/06/13 03:15:30;;;;;;;14.93;7.60;;;21.70;70.30;;;;;;5050438;28;20849;-71
2022/06/13 03:18:04;;;;;;;9.70;7.00;;;21.80;68.70;;;;;;5045911;28;20466;-71
2022/06/13 03:20:42;;;;;;;12.90;7.33;;;22.00;66.80;;;;;;5033898;28;20403;-71
2022/06/13 03:23:13;;;;;;;12.43;7.63;;;21.90;68.00;;;;;;5033871;28;20417;-72
2022/06/13 03:25:55;;;;;;;12.70;7.60;;;21.90;68.00;;;;;;5040302;28;20456;-72
2022/06/13 03:28:34;;;;;;;8.70;7.60;;;22.10;66.20;;;;;;5041747;28;20913;-71
2022/06/13 03:31:23;;;;;;;10.60;7.90;;;21.90;67.90;;;;;;5033672;28;20805;-72
2022/06/13 03:33:55;;;;;;;12.40;8.83;;;21.90;69.10;;;;;;5025694;28;20476;-72
2022/06/13 03:36:40;;;;;;;10.23;7.60;;;21.90;69.00;;;;;;5045128;28;20433;-72
2022/06/13 03:39:17;;;;;;;20.83;8.80;;;21.90;69.10;;;;;;5051239;28;20428;-72
2022/06/13 03:41:49;;;;;;;12.63;8.10;;;21.90;69.00;;;;;;5053266;28;20419;-71
2022/06/13 03:44:25;;;;;;;15.60;8.40;;;21.90;68.30;;;;;;5044225;28;20459;-70
2022/06/13 03:46:56;;;;;;;11.50;7.60;;;21.90;69.80;;;;;;5051280;28;20462;-71
2022/06/13 03:49:29;;;;;;;10.10;8.10;;;22.20;66.70;;;;;;5039989;28;20472;-71
2022/06/13 03:51:58;;;;;;;9.10;7.33;;;22.00;67.90;;;;;;5033068;28;20461;-71
2022/06/13 03:54:34;;;;;;;10.67;7.10;;;21.90;68.20;;;;;;5031675;28;20813;-72
2022/06/13 03:57:04;;;;;;;11.40;7.50;;;21.80;68.80;;;;;;5044126;28;20804;-71
2022/06/13 03:59:45;;;;;;;8.20;6.60;;;21.50;70.60;;;;;;5033669;28;20419;-70
2022/06/13 04:02:14;;;;;;;12.13;6.23;;;21.30;71.70;;;;;;5042598;28;20418;-71
2022/06/13 04:04:48;;;;;;;10.40;6.40;;;20.70;73.80;;;;;;5033607;28;20449;-71
2022/06/13 04:07:15;;;;;;;8.60;6.33;;;20.60;77.20;;;;;;5043506;28;20923;-71
2022/06/13 04:09:45;;;;;;;10.37;6.30;;;20.60;76.20;;;;;;5041447;28;20520;-71
2022/06/13 04:12:45;;;;;;;13.20;7.10;;;20.10;81.60;;;;;;5032890;28;20450;-71
2022/06/13 04:15:21;;;;;;;10.10;6.70;;;20.40;80.80;;;;;;5032463;28;20935;-70
2022/06/13 04:18:23;;;;;;;10.80;6.90;;;20.50;80.10;;;;;;5038108;28;20470;-71
2022/06/13 04:20:57;;;;;;;11.50;7.10;;;20.40;79.30;;;;;;5040473;28;20427;-71
2022/06/13 04:23:53;;;;;;;8.90;6.93;;;20.00;86.60;;;;;;5032510;28;20412;-71
2022/06/13 04:26:40;;;;;;;17.47;7.07;;;20.10;83.20;;;;;;5033950;28;20445;-71
2022/06/13 04:29:16;;;;;;;13.67;8.23;;;20.10;84.90;;;;;;5049750;28;20459;-71
2022/06/13 04:31:42;;;;;;;9.80;6.97;;;20.60;82.70;;;;;;5041889;28;20437;-71
2022/06/13 04:34:14;;;;;;;14.10;7.20;;;20.30;78.30;;;;;;5034044;28;20471;-71
2022/06/13 04:36:41;;;;;;;12.00;6.40;;;20.00;82.20;;;;;;5032553;28;21279;-71
2022/06/13 04:39:10;;;;;;;14.40;7.70;;;19.70;80.10;;;;;;5039090;28;20790;-71
2022/06/13 04:41:39;;;;;;;13.03;7.10;;;20.30;77.10;;;;;;5043730;28;20440;-71
2022/06/13 04:44:07;;;;;;;20.00;7.10;;;20.10;73.60;;;;;;5052113;28;20485;-71
2022/06/13 04:46:36;;;;;;;18.00;6.90;;;20.20;74.70;;;;;;5052305;28;20758;-71
2022/06/13 04:49:15;;;;;;;11.73;6.77;;;20.40;73.50;;;;;;5050232;28;20446;-70
2022/06/13 04:51:43;;;;;;;16.97;7.00;;;21.10;68.50;;;;;;5038204;28;20468;-71
2022/06/13 04:54:28;;;;;;;17.93;7.17;;;21.00;65.50;;;;;;5040514;28;20437;-71
2022/06/13 04:56:59;;;;;;;15.40;8.00;;;21.10;68.70;;;;;;5040246;28;20487;-70
2022/06/13 04:59:25;;;;;;;17.10;8.30;;;20.90;71.20;;;;;;5032046;28;20415;-70
2022/06/13 05:01:51;;;;;;;22.87;8.60;;;21.40;69.00;;;;;;5048897;28;20446;-71
2022/06/13 05:04:20;;;;;;;14.30;8.00;;;21.70;69.90;;;;;;5051763;28;20519;-71
2022/06/13 05:06:59;;;;;;;13.30;7.97;;;21.40;63.60;;;;;;5051151;28;20297;-71
2022/06/13 05:09:31;;;;;;;13.13;7.10;;;21.20;66.70;;;;;;5039882;28;20486;-71
2022/06/13 05:12:14;;;;;;;10.67;6.33;;;21.00;65.30;;;;;;5035084;28;20427;-70
2022/06/13 05:14:41;;;;;;;19.87;5.53;;;20.10;69.10;;;;;;5051840;28;20483;-70
2022/06/13 05:17:32;;;;;;;11.83;5.90;;;19.80;63.60;;;;;;5049151;28;20453;-71
2022/06/13 05:20:16;;;;;;;14.33;6.33;;;19.60;63.10;;;;;;5039883;28;20409;-71
2022/06/13 05:22:59;;;;;;;13.13;6.47;;;19.30;67.20;;;;;;5035628;28;20931;-70
2022/06/13 05:25:30;;;;;;;18.53;6.20;;;19.30;68.00;;;;;;5051321;28;20940;-70
2022/06/13 05:27:56;;;;;;;12.63;6.33;;;19.40;69.40;;;;;;5049959;28;20614;-71
2022/06/13 05:30:23;;;;;;;21.13;7.43;;;19.40;71.20;;;;;;5038729;28;20983;-71
2022/06/13 05:32:49;;;;;;;21.20;7.33;;;19.30;71.50;;;;;;5039897;28;20177;-70
2022/06/13 05:35:21;;;;;;;13.23;6.50;;;19.60;64.50;;;;;;5039155;28;20454;-70
2022/06/13 05:37:47;;;;;;;14.10;6.40;;;19.30;59.00;;;;;;5040945;28;20480;-70
2022/06/13 05:40:18;;;;;;;27.90;7.10;;;19.00;61.60;;;;;;5043108;28;20784;-71
2022/06/13 05:42:45;;;;;;;13.23;6.00;;;18.80;56.80;;;;;;5044080;28;20932;-71
2022/06/13 05:45:16;;;;;;;18.63;6.50;;;19.20;58.30;;;;;;5046594;28;20463;-71
2022/06/13 05:47:43;;;;;;;15.53;5.70;;;19.00;55.70;;;;;;5040347;28;20470;-70
2022/06/13 05:50:17;;;;;;;12.80;5.93;;;19.20;50.80;;;;;;5033093;28;20416;-70
2022/06/13 05:52:43;;;;;;;14.20;5.47;;;19.30;56.00;;;;;;5040268;28;20432;-71
2022/06/13 05:55:10;;;;;;;10.90;6.30;;;19.40;52.40;;;;;;5041132;28;20515;-71
2022/06/13 05:57:37;;;;;;;12.07;6.00;;;19.90;50.90;;;;;;5048045;28;20606;-71
2022/06/13 06:00:04;;;;;;;13.73;6.07;;;19.30;47.90;;;;;;5034112;28;20505;-71
2022/06/13 06:02:30;;;;;;;15.63;5.37;;;18.80;51.80;;;;;;5031057;28;20414;-70
2022/06/13 06:04:55;;;;;;;11.77;6.20;;;18.80;51.20;;;;;;5035846;28;20473;-71
2022/06/13 06:07:21;;;;;;;9.63;5.60;;;18.70;52.10;;;;;;5041872;28;20222;-71
2022/06/13 06:09:46;;;;;;;13.47;6.00;;;18.80;52.20;;;;;;5042922;28;20650;-71
2022/06/13 06:12:12;;;;;;;22.47;6.33;;;18.70;53.20;;;;;;5048177;28;20259;-70
2022/06/13 06:14:38;;;;;;;21.67;6.23;;;18.50;56.10;;;;;;5037308;28;20676;-70
2022/06/13 06:17:03;;;;;;;10.60;5.47;;;18.70;54.10;;;;;;5039844;28;20256;-70
2022/06/13 06:19:29;;;;;;;14.50;6.10;;;19.00;52.70;;;;;;5037719;28;20181;-70
2022/06/13 06:21:55;;;;;;;16.43;6.90;;;19.10;51.10;;;;;;5042660;28;20172;-70
2022/06/13 06:24:21;;;;;;;20.40;6.00;;;19.40;50.00;;;;;;5041180;28;20460;-71
2022/06/13 06:26:46;;;;;;;15.17;6.70;;;19.40;48.10;;;;;;5046708;28;20469;-70
2022/06/13 06:29:12;;;;;;;17.57;6.00;;;19.30;48.30;;;;;;5043608;28;20207;-70
2022/06/13 06:31:38;;;;;;;13.53;6.20;;;19.00;50.20;;;;;;5043813;28;20180;-70
2022/06/13 06:34:04;;;;;;;17.33;5.87;;;19.10;49.30;;;;;;5043579;28;20227;-71
2022/06/13 06:36:29;;;;;;;12.37;5.97;;;19.30;48.50;;;;;;5042300;28;20180;-70
2022/06/13 06:38:56;;;;;;;15.10;6.40;;;19.10;47.40;;;;;;5042051;28;20554;-71
2022/06/13 06:41:21;;;;;;;15.63;6.53;;;19.00;51.10;;;;;;5044760;28;20631;-71
2022/06/13 06:43:47;;;;;;;15.80;6.93;;;19.20;48.70;;;;;;5044816;28;20462;-71
2022/06/13 06:46:14;;;;;;;15.00;6.30;;;19.70;51.40;;;;;;5045069;28;20184;-70
2022/06/13 06:48:40;;;;;;;18.13;6.90;;;17.70;42.80;;;;;;5042088;28;20231;-70
2022/06/13 06:51:07;;;;;;;12.70;6.13;;;19.10;44.80;;;;;;5050577;28;20455;-69
2022/06/13 06:59:53;;;;;;;29.77;6.50;;;18.70;45.20;;;;;;5039781;28;20961;-69
2022/06/13 07:01:47;;;;;;;15.80;6.23;;;19.70;45.40;;;;;;5046540;28;20445;-69
2022/06/13 07:04:13;;;;;;;16.53;6.73;;;19.20;44.40;;;;;;5049729;28;20450;-69
2022/06/13 07:06:38;;;;;;;24.20;6.63;;;19.10;48.20;;;;;;5044022;28;20280;-70
2022/06/13 07:09:04;;;;;;;14.07;6.83;;;19.00;47.20;;;;;;5043166;28;20206;-69
2022/06/13 07:14:17;;;;;;;20.60;6.47;;;19.30;44.80;;;;;;5050342;28;20490;-69
2022/06/13 07:16:43;;;;;;;14.97;6.60;;;18.90;47.00;;;;;;5052242;28;20912;-69
2022/06/13 07:19:08;;;;;;;15.23;6.60;;;19.30;49.30;;;;;;5050397;28;20754;-69
2022/06/13 07:21:34;;;;;;;21.93;6.77;;;19.40;46.30;;;;;;5044961;28;20218;-70
2022/06/13 07:24:00;;;;;;;16.00;6.27;;;19.70;44.40;;;;;;5041637;28;20212;-69
2022/06/13 07:26:26;;;;;;;19.33;6.40;;;19.40;44.20;;;;;;5043887;28;20185;-69
2022/06/13 07:28:51;;;;;;;15.17;6.30;;;19.50;44.80;;;;;;5032790;28;20836;-69
2022/06/13 07:31:27;;;;;;;22.03;7.20;;;19.80;44.90;;;;;;5043820;28;20963;-69
2022/06/13 07:33:53;;;;;;;14.57;6.60;;;19.70;43.00;;;;;;5051103;28;20209;-69
2022/06/13 07:36:18;;;;;;;16.37;7.00;;;19.30;43.60;;;;;;5044384;28;20421;-69
2022/06/13 07:38:45;;;;;;;15.87;6.10;;;19.40;43.80;;;;;;5045471;28;20271;-69
2022/06/13 07:41:17;;;;;;;15.23;6.13;;;19.60;43.30;;;;;;5053399;28;20203;-69
2022/06/13 07:43:43;;;;;;;15.63;6.40;;;20.00;41.60;;;;;;5044046;28;20513;-69
2022/06/13 07:46:11;;;;;;;17.17;6.00;;;19.70;41.90;;;;;;5035240;28;20419;-69
2022/06/13 07:48:36;;;;;;;14.33;6.27;;;19.90;41.50;;;;;;5051313;28;20459;-68
2022/06/13 07:51:05;;;;;;;16.20;6.83;;;20.60;39.20;;;;;;5053194;28;20485;-71
2022/06/13 07:53:31;;;;;;;15.37;6.17;;;20.00;40.10;;;;;;5045783;28;20230;-68
2022/06/13 07:55:57;;;;;;;17.77;6.00;;;20.00;41.60;;;;;;5042515;28;20430;-69
2022/06/13 07:58:30;;;;;;;16.80;7.10;;;19.70;41.40;;;;;;5035967;28;20511;-69
2022/06/13 08:00:55;;;;;;;17.80;6.60;;;20.00;40.50;;;;;;5041068;28;20193;-69
2022/06/13 08:03:28;;;;;;;12.20;5.63;;;20.70;42.80;;;;;;5040854;28;20515;-70
2022/06/13 08:05:54;;;;;;;14.10;6.17;;;21.10;37.90;;;;;;5052186;28;20199;-70
2022/06/13 08:08:20;;;;;;;16.13;6.30;;;20.90;38.80;;;;;;5044253;28;20959;-70
2022/06/13 08:10:47;;;;;;;13.67;6.30;;;20.70;38.30;;;;;;5051624;28;20843;-70
2022/06/13 08:13:15;;;;;;;18.33;6.60;;;20.80;37.00;;;;;;5044090;28;20177;-69
2022/06/13 08:15:42;;;;;;;17.63;6.20;;;20.60;38.50;;;;;;5052638;28;20403;-69
2022/06/13 08:18:09;;;;;;;11.23;6.27;;;21.00;38.90;;;;;;5051663;28;20484;-70
2022/06/13 08:20:35;;;;;;;28.00;8.27;;;20.90;38.20;;;;;;5041717;28;20441;-69
2022/06/13 08:23:03;;;;;;;20.53;6.80;;;20.20;39.60;;;;;;5048814;28;20432;-70
2022/06/13 08:25:32;;;;;;;17.97;5.57;;;20.00;39.80;;;;;;5045733;28;20455;-70
2022/06/13 08:27:59;;;;;;;15.00;5.93;;;20.70;37.70;;;;;;5036325;28;20516;-68
2022/06/13 08:30:29;;;;;;;20.30;6.70;;;20.60;39.20;;;;;;5040161;28;20432;-70
2022/06/13 08:32:55;;;;;;;21.83;6.70;;;20.70;40.00;;;;;;5036756;28;20939;-70
2022/06/13 08:35:20;;;;;;;12.30;5.83;;;21.10;37.60;;;;;;5040882;28;20457;-70
2022/06/13 08:37:46;;;;;;;20.83;7.00;;;21.20;37.90;;;;;;5048586;28;20184;-69
2022/06/13 08:40:12;;;;;;;16.83;6.40;;;21.90;35.00;;;;;;5043700;28;20215;-69
2022/06/13 08:42:44;;;;;;;18.00;6.67;;;20.70;37.20;;;;;;5036551;28;20653;-70
2022/06/13 08:45:17;;;;;;;16.97;6.70;;;20.90;38.00;;;;;;5036138;28;20433;-69
2022/06/13 08:47:57;;;;;;;17.53;6.27;;;21.10;36.40;;;;;;5051800;28;20461;-70
2022/06/13 08:50:55;;;;;;;28.90;7.20;;;21.20;35.60;;;;;;5039731;28;20438;-69
2022/06/13 08:53:23;;;;;;;21.07;6.90;;;20.90;36.60;;;;;;5041030;28;20441;-68
2022/06/13 08:55:55;;;;;;;17.80;7.03;;;20.60;36.80;;;;;;5039614;28;20428;-71
2022/06/13 08:58:36;;;;;;;19.77;6.60;;;20.60;37.30;;;;;;5049010;28;20481;-69
2022/06/13 09:01:27;;;;;;;15.27;6.37;;;20.80;37.30;;;;;;5044311;28;20432;-70
2022/06/13 09:04:05;;;;;;;25.60;7.00;;;21.00;35.90;;;;;;5038962;28;20440;-70
2022/06/13 09:06:43;;;;;;;13.63;6.33;;;21.60;34.70;;;;;;5043718;28;20490;-70
2022/06/13 09:09:29;;;;;;;25.90;6.47;;;21.90;35.50;;;;;;5044910;28;20496;-69
2022/06/13 09:12:23;;;;;;;18.97;7.10;;;21.10;34.30;;;;;;5039657;28;20427;-69
2022/06/13 09:15:12;;;;;;;18.57;6.93;;;20.90;36.20;;;;;;5041615;28;20567;-70
2022/06/13 09:17:51;;;;;;;13.93;6.10;;;21.40;33.90;;;;;;5043439;28;20810;-70
2022/06/13 09:20:40;;;;;;;18.03;6.43;;;22.00;32.40;;;;;;5041363;28;20456;-69
2022/06/13 09:23:17;;;;;;;13.77;6.17;;;22.50;31.80;;;;;;5041299;28;21814;-69
2022/06/13 09:25:54;;;;;;;12.77;5.90;;;22.60;31.60;;;;;;5042498;28;20476;-70
2022/06/13 09:28:36;;;;;;;26.43;6.40;;;22.70;30.60;;;;;;5040995;28;20556;-69
2022/06/13 09:31:13;;;;;;;19.83;5.30;;;22.50;33.80;;;;;;5048541;28;20408;-70
2022/06/13 09:33:47;;;;;;;11.90;5.23;;;22.30;30.40;;;;;;5047527;28;20468;-70
2022/06/13 09:36:29;;;;;;;19.70;5.80;;;22.20;30.70;;;;;;5041853;28;20834;-70
2022/06/13 09:39:15;;;;;;;12.90;5.40;;;21.90;30.80;;;;;;5043442;28;20437;-70
2022/06/13 09:42:02;;;;;;;20.20;6.27;;;22.20;32.40;;;;;;5041739;28;20441;-69
2022/06/13 09:44:56;;;;;;;13.90;5.60;;;22.90;30.80;;;;;;5040623;28;20466;-70
2022/06/13 09:47:38;;;;;;;16.17;5.77;;;23.20;29.60;;;;;;5044857;28;20480;-69
2022/06/13 09:50:22;;;;;;;11.73;5.57;;;22.40;29.30;;;;;;5045826;28;20805;-69
2022/06/13 09:52:56;;;;;;;14.60;5.33;;;21.60;28.10;;;;;;5039087;28;20858;-70
2022/06/13 09:55:41;;;;;;;13.20;4.90;;;22.00;29.60;;;;;;5037971;28;20465;-69
2022/06/13 09:58:12;;;;;;;17.73;5.60;;;22.00;29.90;;;;;;5040226;28;20429;-70
2022/06/13 10:01:06;;;;;;;16.23;5.93;;;21.70;29.80;;;;;;5044994;28;20938;-69
2022/06/13 10:04:16;;;;;;;17.73;5.77;;;21.60;29.20;;;;;;5050148;28;20924;-69
2022/06/13 10:06:58;;;;;;;13.30;5.23;;;21.50;30.20;;;;;;4988787;28;20558;-70
2022/06/13 10:09:52;;;;;;;13.40;5.40;;;22.20;28.60;;;;;;4983311;28;21228;-70
2022/06/13 10:12:33;;;;;;;11.90;5.30;;;21.80;28.60;;;;;;4990237;28;20491;-70
2022/06/13 10:15:38;;;;;;;10.83;5.43;;;22.10;28.90;;;;;;4987567;28;20478;-70
2022/06/13 10:18:25;;;;;;;11.10;4.40;;;23.10;28.60;;;;;;4952631;28;20455;-70
2022/06/13 10:21:00;;;;;;;11.37;4.73;;;23.00;25.60;;;;;;4952158;29;20813;-70
2022/06/13 10:23:40;;;;;;;12.90;5.13;;;23.10;26.80;;;;;;4950378;29;20465;-70
2022/06/13 10:26:08;;;;;;;13.00;5.20;;;22.80;28.00;;;;;;4947538;29;20426;-71
2022/06/13 10:28:57;;;;;;;14.23;5.10;;;22.80;27.30;;;;;;4951822;29;20473;-71
2022/06/13 10:32:18;;;;;;;10.53;4.23;;;22.30;27.00;;;;;;4945096;29;20476;-70
2022/06/13 10:34:43;;;;;;;10.87;4.80;;;22.20;27.50;;;;;;4880163;29;20472;-72
2022/06/13 10:37:39;;;;;;;11.20;4.87;;;22.80;26.60;;;;;;4895706;29;20492;-71
2022/06/13 10:40:06;;;;;;;10.47;4.70;;;23.40;25.20;;;;;;4879308;29;20201;-69
2022/06/13 10:42:35;;;;;;;10.27;4.50;;;23.10;27.50;;;;;;4895325;29;20451;-71
2022/06/13 10:45:05;;;;;;;12.13;4.70;;;24.00;27.20;;;;;;4895051;29;20457;-70
2022/06/13 10:47:47;;;;;;;13.67;4.73;;;24.80;25.60;;;;;;4896830;29;20437;-69
2022/06/13 10:50:28;;;;;;;9.40;4.10;;;24.60;23.70;;;;;;4896649;29;20565;-68
2022/06/13 10:53:00;;;;;;;10.90;4.80;;;23.70;23.90;;;;;;4907141;28;21187;-69
2022/06/13 10:55:30;;;;;;;12.73;4.60;;;23.00;25.00;;;;;;4961706;28;20437;-69
2022/06/13 10:58:08;;;;;;;10.50;4.80;;;23.50;25.80;;;;;;4972984;28;20597;-70
2022/06/13 11:00:33;;;;;;;10.03;5.00;;;23.80;25.20;;;;;;4972657;28;20821;-71
2022/06/13 11:03:16;;;;;;;6.90;3.83;;;24.50;24.60;;;;;;4971176;28;20441;-69
2022/06/13 11:05:57;;;;;;;12.10;3.90;;;24.50;23.90;;;;;;4967429;28;20175;-69
2022/06/13 11:08:23;;;;;;;18.07;4.80;;;24.20;23.50;;;;;;4972404;28;20461;-68
2022/06/13 11:10:58;;;;;;;20.83;4.43;;;24.50;23.70;;;;;;5011995;28;20452;-69
2022/06/13 11:13:36;;;;;;;12.73;4.50;;;24.20;23.90;;;;;;5042109;28;20445;-69
2022/06/13 11:24:39;;;;;;;10.20;4.30;;;23.50;24.60;;;;;;5044842;28;21060;-70
2022/06/13 11:30:18;;;;;;;12.03;3.87;;;25.30;22.40;;;;;;5053450;28;20401;-69
2022/06/13 11:33:11;;;;;;;10.43;4.00;;;25.10;22.50;;;;;;5043170;28;20878;-69
2022/06/13 11:35:42;;;;;;;6.93;3.87;;;25.50;22.30;;;;;;5041503;28;20445;-70
2022/06/13 11:38:33;;;;;;;8.80;3.70;;;25.30;21.20;;;;;;5041517;28;20441;-69
2022/06/13 11:41:04;;;;;;;10.93;4.20;;;24.40;22.90;;;;;;5045950;28;21102;-69
2022/06/13 11:43:34;;;;;;;9.80;4.03;;;24.40;22.50;;;;;;5041250;28;20444;-71
2022/06/13 11:46:04;;;;;;;11.57;4.00;;;25.20;21.60;;;;;;5044334;28;20541;-69
2022/06/13 11:48:30;;;;;;;11.67;3.63;;;25.70;23.20;;;;;;5042951;28;20453;-70
2022/06/13 11:51:00;;;;;;;7.87;3.97;;;25.30;23.80;;;;;;5047333;28;20433;-70
2022/06/13 11:53:35;;;;;;;14.90;4.10;;;25.30;21.60;;;;;;5041079;28;20890;-69
2022/06/13 11:56:05;;;;;;;6.27;3.83;;;24.80;22.00;;;;;;5034857;28;20966;-69
2022/06/13 11:58:33;;;;;;;11.50;3.93;;;24.80;22.70;;;;;;5043815;28;20434;-70
2022/06/13 12:01:19;;;;;;;16.73;3.80;;;25.10;21.30;;;;;;5036063;28;20411;-71
2022/06/13 12:04:04;;;;;;;6.10;3.70;;;26.40;20.70;;;;;;5051019;28;20450;-69
2022/06/13 12:06:37;;;;;;;7.50;3.80;;;27.20;18.80;;;;;;5041433;28;20429;-71
2022/06/13 12:09:23;;;;;;;10.83;3.20;;;27.10;18.20;;;;;;5051480;28;20457;-70
2022/06/13 12:11:58;;;;;;;5.57;3.30;;;26.50;18.40;;;;;;5052225;28;20387;-69
2022/06/13 12:14:29;;;;;;;7.80;3.50;;;25.60;18.30;;;;;;5041581;28;21014;-70
2022/06/13 12:17:10;;;;;;;8.13;3.10;;;26.20;18.20;;;;;;5043063;28;20437;-69
2022/06/13 12:19:45;;;;;;;6.80;3.17;;;26.50;17.00;;;;;;5044988;28;20522;-70
2022/06/13 12:22:26;;;;;;;7.17;3.27;;;27.30;19.10;;;;;;5041199;28;20521;-71
2022/06/13 12:25:09;;;;;;;4.80;3.00;;;27.30;17.70;;;;;;5040636;28;20808;-69
2022/06/13 12:27:58;;;;;;;5.60;3.17;;;27.40;18.30;;;;;;5043708;28;20434;-70
2022/06/13 12:30:51;;;;;;;9.23;3.67;;;26.70;16.80;;;;;;5044462;28;20905;-68
2022/06/13 12:33:42;;;;;;;5.10;3.00;;;25.40;18.50;;;;;;5040425;28;20914;-70
2022/06/13 12:36:13;;;;;;;6.87;3.10;;;25.50;18.80;;;;;;5037760;28;20481;-71
2022/06/13 12:38:59;;;;;;;5.80;3.00;;;25.90;19.10;;;;;;5045268;28;20414;-71
2022/06/13 12:41:37;;;;;;;11.70;3.00;;;26.50;16.60;;;;;;5042995;28;20436;-71
2022/06/13 12:44:17;;;;;;;9.27;2.90;;;25.80;17.80;;;;;;5038335;28;20448;-71
2022/06/13 12:47:06;;;;;;;5.90;3.17;;;25.70;17.80;;;;;;5044456;28;20433;-69
2022/06/13 12:50:07;;;;;;;8.13;3.63;;;25.10;18.80;;;;;;5041022;28;20500;-71
2022/06/13 12:52:39;;;;;;;4.97;3.27;;;24.40;20.20;;;;;;5040866;28;20513;-71
2022/06/13 12:55:22;;;;;;;4.27;3.20;;;24.70;21.90;;;;;;5035313;28;21086;-72
2022/06/13 12:58:19;;;;;;;6.67;3.13;;;25.30;21.00;;;;;;5036776;28;20440;-72
2022/06/13 13:01:02;;;;;;;6.37;3.63;;;25.50;17.80;;;;;;5042664;28;20456;-70
2022/06/13 13:03:49;;;;;;;10.70;3.40;;;25.20;19.90;;;;;;5043298;28;20940;-71
2022/06/13 13:06:33;;;;;;;5.53;3.50;;;26.40;19.00;;;;;;5043888;28;20426;-70
2022/06/13 13:09:23;;;;;;;11.03;3.97;;;25.60;20.70;;;;;;5045365;28;20488;-71
2022/06/13 13:12:15;;;;;;;9.63;3.47;;;25.50;19.20;;;;;;5045105;28;20434;-72
2022/06/13 13:15:14;;;;;;;11.43;3.43;;;25.90;21.40;;;;;;5039028;28;20469;-71
2022/06/13 13:18:02;;;;;;;6.37;3.70;;;26.70;17.30;;;;;;5035773;28;20461;-72
2022/06/13 13:20:39;;;;;;;6.53;3.43;;;26.10;17.30;;;;;;5039606;28;20426;-70
2022/06/13 13:23:07;;;;;;;9.33;3.90;;;25.40;19.70;;;;;;5045800;28;20796;-72
2022/06/13 13:26:01;;;;;;;9.20;3.70;;;26.40;20.10;;;;;;5042617;28;20454;-72
2022/06/13 13:28:43;;;;;;;4.53;3.43;;;27.30;20.20;;;;;;5042106;28;20465;-72
2022/06/13 13:31:24;;;;;;;7.20;3.80;;;26.10;19.00;;;;;;5035362;28;20442;-72
2022/06/13 13:33:57;;;;;;;6.50;3.50;;;26.50;18.80;;;;;;5048640;28;20493;-70
2022/06/13 13:36:45;;;;;;;8.70;4.13;;;27.00;19.10;;;;;;5035878;28;20450;-71
2022/06/13 13:39:31;;;;;;;11.43;3.87;;;27.10;18.30;;;;;;5040463;28;20439;-71
2022/06/13 13:42:07;;;;;;;6.33;3.43;;;26.20;17.10;;;;;;5042868;28;20473;-69
2022/06/13 13:44:40;;;;;;;10.83;3.90;;;25.20;18.90;;;;;;5047658;28;21003;-70